Time;durP1;ratioP1;P1;durP2;ratioP2;P2;SDS_P1;SDS_P2;PMS_P1;PMS_P2;Temp;Humidity;BMP_temperature;BMP_pressure;BME280_temperature;BME280_humidity;BME280_pressure;Samples;Min_cycle;Max_cycle;Signal;HPM_P1;HPM_P2
2024/04/16 07:00:24;;;;;;;13.48;1.58;;;;;;;5.87;67.79;95742.19;2223472;26;21075;-63
2024/04/16 07:01:26;;;;;;;8.93;1.20;;;;;;;6.08;67.68;95747.41;2220975;26;20263;-63
2024/04/16 07:02:29;;;;;;;9.30;1.50;;;;;;;5.97;67.04;95740.06;2220761;26;20255;-63
2024/04/16 07:03:30;;;;;;;18.05;1.50;;;;;;;5.94;65.99;95746.22;2212663;26;20262;-63
2024/04/16 07:04:32;;;;;;;3.45;1.30;;;;;;;6.05;65.34;95751.81;2207688;26;20225;-63
2024/04/16 07:05:36;;;;;;;7.75;2.00;;;;;;;6.23;66.10;95751.13;2208336;26;20657;-63
2024/04/16 07:13:07;;;;;;;6.97;1.08;;;;;;;5.97;66.64;95743.50;2234476;26;21070;-64
2024/04/16 07:14:09;;;;;;;17.35;2.10;;;;;;;6.24;64.71;95743.28;2239141;26;20292;-63
2024/04/16 07:15:11;;;;;;;13.45;1.50;;;;;;;6.56;65.41;95738.47;2236638;26;20680;-63
2024/04/16 07:16:12;;;;;;;10.57;1.98;;;;;;;6.85;64.81;95742.38;2231300;26;20320;-64
2024/04/16 07:17:14;;;;;;;5.47;1.10;;;;;;;7.23;64.63;95751.97;2232090;26;20620;-63
2024/04/16 07:19:00;;;;;;;5.78;1.30;;;;;;;7.08;62.52;95750.06;2254409;25;20570;-63
2024/04/16 07:20:01;;;;;;;4.05;0.93;;;;;;;6.84;62.12;95734.66;2240447;26;20264;-65
2024/04/16 07:21:03;;;;;;;7.82;1.00;;;;;;;7.00;61.87;95740.88;2248224;26;20215;-66
2024/04/16 07:22:05;;;;;;;4.68;1.10;;;;;;;7.05;61.00;95729.44;2241517;25;20263;-65
2024/04/16 07:23:06;;;;;;;7.38;1.00;;;;;;;7.19;61.20;95727.06;2215165;26;20277;-65
2024/04/16 07:24:08;;;;;;;4.53;1.30;;;;;;;7.24;61.72;95713.84;2222986;26;20224;-66
2024/04/16 07:25:09;;;;;;;7.93;1.35;;;;;;;7.62;60.51;95727.66;2203557;26;20219;-65
2024/04/16 07:26:11;;;;;;;5.20;1.30;;;;;;;7.54;59.89;95715.94;2205307;26;20224;-65
2024/04/16 07:27:13;;;;;;;17.60;2.00;;;;;;;7.83;60.12;95727.53;2225701;26;20955;-66
2024/04/16 07:28:14;;;;;;;7.47;1.25;;;;;;;7.77;60.71;95736.47;2218858;26;20220;-66
2024/04/16 07:29:16;;;;;;;4.40;1.00;;;;;;;7.68;59.78;95734.28;2214200;26;20263;-65
2024/04/16 07:30:18;;;;;;;8.20;1.42;;;;;;;7.37;59.43;95732.31;2221014;26;20224;-66
2024/04/16 07:31:20;;;;;;;6.93;1.50;;;;;;;7.34;59.46;95730.72;2216699;26;20751;-65
2024/04/16 07:32:31;;;;;;;16.33;1.65;;;;;;;7.61;60.01;95723.38;2213976;26;20292;-65
2024/04/16 07:33:35;;;;;;;9.20;1.20;;;;;;;7.88;59.75;95735.13;2221181;26;20837;-66
2024/04/16 07:34:37;;;;;;;2.25;0.80;;;;;;;7.50;58.82;95723.88;2211620;26;20778;-65
2024/04/16 07:35:40;;;;;;;8.27;1.10;;;;;;;7.54;59.13;95716.75;2208307;26;20229;-65
2024/04/16 07:36:42;;;;;;;2.60;0.75;;;;;;;7.74;58.62;95718.41;2217896;26;20654;-66
2024/04/16 07:37:43;;;;;;;11.95;1.70;;;;;;;8.11;59.50;95711.44;2213861;26;20290;-66
2024/04/16 07:38:45;;;;;;;5.88;1.10;;;;;;;8.31;59.00;95718.22;2215153;26;20258;-66
2024/04/16 07:39:46;;;;;;;1.90;0.80;;;;;;;8.30;57.71;95711.34;2202196;26;20271;-65
2024/04/16 07:40:55;;;;;;;6.63;1.35;;;;;;;7.60;59.03;95708.69;2203114;26;20221;-66
2024/04/16 07:41:56;;;;;;;5.78;1.30;;;;;;;7.22;60.32;95716.53;2216954;26;20254;-65
2024/04/16 07:42:59;;;;;;;13.63;2.15;;;;;;;7.16;60.90;95706.41;2221482;26;20293;-65
2024/04/16 07:44:01;;;;;;;8.18;1.50;;;;;;;7.05;61.46;95698.28;2223398;26;20209;-66
2024/04/16 07:45:03;;;;;;;13.13;1.65;;;;;;;7.21;61.97;95698.41;2220998;26;20262;-66
2024/04/16 07:46:07;;;;;;;9.00;1.38;;;;;;;7.29;61.44;95704.13;2218271;26;20259;-66
2024/04/16 07:47:09;;;;;;;11.73;1.40;;;;;;;7.23;61.84;95707.81;2215584;26;20232;-66
2024/04/16 07:48:10;;;;;;;5.70;1.00;;;;;;;7.39;61.57;95694.13;2211750;26;20296;-65
2024/04/16 07:49:12;;;;;;;7.22;1.42;;;;;;;7.31;60.65;95673.69;2216978;26;20572;-65
2024/04/16 07:50:14;;;;;;;7.40;1.20;;;;;;;7.52;61.42;95697.84;2218477;26;20360;-65
2024/04/16 07:51:19;;;;;;;7.95;1.10;;;;;;;7.19;61.06;95707.13;2218374;26;20216;-65
2024/04/16 07:52:20;;;;;;;8.45;1.63;;;;;;;6.96;61.64;95690.00;2213565;26;20259;-65
2024/04/16 07:53:22;;;;;;;9.68;1.30;;;;;;;6.44;63.28;95700.13;2211112;26;20283;-65
2024/04/16 07:56:53;;;;;;;4.18;1.60;;;;;;;5.88;65.04;95710.19;2268876;25;20563;-64
2024/04/16 07:57:55;;;;;;;4.93;0.95;;;;;;;6.21;65.59;95713.16;2255704;25;20299;-63
2024/04/16 07:58:57;;;;;;;6.10;1.25;;;;;;;6.57;65.24;95713.41;2256823;26;20210;-63
2024/04/16 07:59:59;;;;;;;12.63;1.25;;;;;;;7.10;64.81;95720.53;2257035;26;20233;-63
2024/04/16 08:01:00;;;;;;;4.07;1.35;;;;;;;7.48;63.70;95697.13;2257920;26;20211;-63
2024/04/16 08:03:10;;;;;;;7.70;1.73;;;;;;;6.93;64.93;95723.91;2227045;26;20619;-63
2024/04/16 08:04:12;;;;;;;5.80;1.45;;;;;;;6.94;65.12;95735.13;2221978;26;20220;-63
2024/04/16 08:05:14;;;;;;;9.98;1.40;;;;;;;6.94;65.29;95703.97;2223801;26;20212;-63
2024/04/16 08:06:16;;;;;;;2.00;1.00;;;;;;;6.31;66.44;95730.91;2223337;26;20220;-63
2024/04/16 08:07:17;;;;;;;8.25;1.60;;;;;;;5.90;68.37;95744.63;2212962;26;20738;-63
2024/04/16 08:08:19;;;;;;;4.32;1.10;;;;;;;5.66;69.51;95744.72;2200833;27;20225;-63
2024/04/16 08:09:32;;;;;;;4.22;0.98;;;;;;;5.67;69.68;95732.59;2197257;27;20220;-63
2024/04/16 08:10:34;;;;;;;4.47;1.02;;;;;;;5.83;69.47;95722.50;2199557;26;20528;-63
2024/04/16 08:11:36;;;;;;;10.18;1.30;;;;;;;6.08;69.05;95703.34;2197239;26;20221;-63
2024/04/16 08:12:37;;;;;;;6.70;1.55;;;;;;;6.20;68.56;95718.41;2197828;26;20297;-63
2024/04/16 08:13:40;;;;;;;4.70;1.20;;;;;;;6.42;69.03;95713.13;2198648;26;20213;-63
2024/04/16 08:14:42;;;;;;;10.35;1.75;;;;;;;6.78;68.55;95706.41;2199769;27;20260;-63
2024/04/16 08:15:47;;;;;;;4.50;1.00;;;;;;;6.72;68.41;95707.53;2196184;27;20216;-63
2024/04/16 08:16:49;;;;;;;5.82;1.48;;;;;;;7.05;68.42;95699.13;2198142;27;20217;-63
2024/04/16 08:17:51;;;;;;;8.60;1.35;;;;;;;7.05;68.24;95698.28;2197930;26;20307;-63
2024/04/16 08:18:53;;;;;;;11.68;1.30;;;;;;;7.29;68.28;95699.75;2198369;26;20260;-63
2024/04/16 08:19:54;;;;;;;4.57;1.25;;;;;;;7.54;67.53;95695.97;2198444;27;20770;-65
2024/04/16 08:20:56;;;;;;;5.43;1.48;;;;;;;6.99;66.75;95686.44;2197340;26;20709;-63
2024/04/16 08:21:57;;;;;;;5.10;0.90;;;;;;;6.78;67.42;95694.28;2197764;27;20671;-63
2024/04/16 08:23:04;;;;;;;4.70;1.20;;;;;;;6.79;66.84;95703.75;2195860;27;20292;-63
2024/04/16 08:24:05;;;;;;;4.47;0.98;;;;;;;6.66;66.76;95705.19;2195556;27;20786;-63
2024/04/16 08:25:07;;;;;;;7.13;1.10;;;;;;;6.85;67.75;95702.63;2200204;26;20216;-63
2024/04/16 08:26:08;;;;;;;17.38;1.17;;;;;;;7.04;66.46;95707.81;2197731;26;20332;-63
2024/04/16 08:27:13;;;;;;;5.65;1.42;;;;;;;6.92;66.33;95714.44;2188893;26;20264;-63
2024/04/16 08:28:14;;;;;;;8.10;1.77;;;;;;;6.70;66.91;95717.97;2200317;26;20271;-62
2024/04/16 08:29:16;;;;;;;3.53;1.23;;;;;;;6.65;66.71;95706.97;2199044;26;20283;-62
2024/04/16 08:30:17;;;;;;;6.97;1.10;;;;;;;6.53;67.33;95707.50;2200290;26;20680;-63
2024/04/16 08:31:19;;;;;;;5.82;1.00;;;;;;;6.42;67.32;95688.97;2195306;27;20560;-62
2024/04/16 08:32:21;;;;;;;8.27;0.90;;;;;;;6.31;66.78;95699.78;2196539;26;20221;-62
2024/04/16 08:33:22;;;;;;;4.47;0.95;;;;;;;6.45;67.36;95688.81;2200459;27;20300;-62
2024/04/16 08:34:25;;;;;;;6.40;1.05;;;;;;;6.51;68.05;95694.59;2197438;26;20235;-62
2024/04/16 08:35:28;;;;;;;3.47;1.10;;;;;;;6.56;67.01;95690.94;2197725;27;20241;-63
2024/04/16 08:36:30;;;;;;;7.30;1.20;;;;;;;6.63;66.48;95707.94;2200003;26;20221;-63
2024/04/16 08:37:31;;;;;;;7.35;1.40;;;;;;;6.54;67.20;95709.19;2200479;26;20736;-62
2024/04/16 08:38:33;;;;;;;4.15;0.90;;;;;;;6.52;67.84;95700.63;2200821;26;20955;-62
2024/04/16 08:39:35;;;;;;;9.02;1.27;;;;;;;6.70;67.74;95684.25;2200649;26;20320;-62
2024/04/16 08:40:37;;;;;;;5.32;1.23;;;;;;;6.94;66.76;95694.41;2199275;27;20216;-62
2024/04/16 08:41:39;;;;;;;3.63;0.77;;;;;;;7.10;66.62;95683.34;2201190;26;20679;-62
2024/04/16 08:42:41;;;;;;;7.82;1.30;;;;;;;7.14;66.73;95693.50;2198115;26;20896;-63
2024/04/16 08:43:44;;;;;;;9.85;1.10;;;;;;;6.96;65.71;95684.81;2199212;27;20731;-62
2024/04/16 08:44:47;;;;;;;11.38;1.10;;;;;;;7.05;66.21;95699.13;2198224;26;20272;-63
2024/04/16 08:45:49;;;;;;;3.58;0.90;;;;;;;6.94;65.68;95701.38;2195880;26;20293;-62
2024/04/16 08:48:01;;;;;;;13.90;1.35;;;;;;;7.08;66.41;95686.00;2200129;25;20592;-62
2024/04/16 08:49:05;;;;;;;4.00;1.27;;;;;;;7.18;66.25;95683.81;2188598;26;20217;-62
2024/04/16 08:51:04;;;;;;;3.15;1.00;;;;;;;7.24;65.08;95691.34;2272080;25;21160;-63
2024/04/16 08:52:09;;;;;;;5.15;1.20;;;;;;;7.10;64.13;95699.75;2256919;26;20216;-61
2024/04/16 08:53:11;;;;;;;3.30;0.85;;;;;;;6.85;64.73;95684.47;2230569;26;20813;-63
2024/04/16 08:54:15;;;;;;;7.65;1.75;;;;;;;7.25;64.71;95680.03;2231900;26;20716;-62
2024/04/16 08:55:18;;;;;;;4.53;1.02;;;;;;;7.19;64.55;95698.50;2232037;26;20223;-63
2024/04/16 08:56:22;;;;;;;15.85;1.17;;;;;;;7.17;64.59;95698.56;2232397;26;20564;-62
2024/04/16 08:57:26;;;;;;;4.60;1.05;;;;;;;6.90;63.96;95699.84;2229555;26;20254;-62
2024/04/16 08:58:27;;;;;;;5.65;0.88;;;;;;;6.69;64.33;95700.72;2230559;26;20212;-61
2024/04/16 08:59:29;;;;;;;8.95;0.80;;;;;;;7.13;64.87;95693.59;2230464;26;20364;-62
2024/04/16 09:00:35;;;;;;;5.25;1.02;;;;;;;7.27;64.18;95685.16;2232865;26;20223;-62
2024/04/16 09:01:38;;;;;;;7.57;0.80;;;;;;;7.00;63.85;95675.97;2230456;26;20293;-62
2024/04/16 09:02:39;;;;;;;3.60;1.02;;;;;;;6.73;63.77;95672.03;2225865;26;20794;-63
2024/04/16 09:03:42;;;;;;;6.85;1.15;;;;;;;6.94;63.59;95699.59;2227293;26;20316;-62
2024/04/16 09:04:47;;;;;;;7.95;1.85;;;;;;;7.00;64.01;95688.94;2224254;26;20324;-62
2024/04/16 09:05:48;;;;;;;8.38;1.50;;;;;;;6.83;64.31;95678.47;2231443;26;20494;-62
2024/04/16 09:06:55;;;;;;;3.00;0.75;;;;;;;6.88;64.87;95686.06;2229364;26;20211;-62
2024/04/16 09:07:57;;;;;;;12.85;1.20;;;;;;;6.91;64.90;95680.72;2228784;26;20255;-62
2024/04/16 09:09:01;;;;;;;7.20;1.02;;;;;;;6.98;65.07;95689.94;2230287;26;20818;-63
2024/04/16 09:12:22;;;;;;;4.72;1.35;;;;;;;6.40;65.23;95707.19;2261208;25;20567;-63
2024/04/16 09:13:23;;;;;;;3.47;0.95;;;;;;;6.42;65.78;95697.56;2239107;26;20218;-62
2024/04/16 09:14:25;;;;;;;7.53;1.25;;;;;;;6.45;66.13;95689.66;2240538;26;20579;-63
2024/04/16 09:15:26;;;;;;;7.80;0.95;;;;;;;6.43;66.18;95695.84;2243368;26;20222;-62
2024/04/16 09:16:28;;;;;;;8.00;1.15;;;;;;;6.56;66.26;95702.16;2244750;26;20210;-62
2024/04/16 09:17:30;;;;;;;9.15;1.10;;;;;;;6.91;65.10;95683.31;2243437;26;20942;-61
2024/04/16 09:18:32;;;;;;;5.40;1.27;;;;;;;7.04;65.12;95702.63;2243341;26;20521;-61
2024/04/16 09:19:36;;;;;;;6.38;1.10;;;;;;;7.11;65.41;95703.19;2228023;26;20223;-62
2024/04/16 09:20:37;;;;;;;7.75;1.42;;;;;;;7.41;65.32;95690.53;2225729;26;20763;-63
2024/04/16 09:21:39;;;;;;;4.70;1.17;;;;;;;7.70;64.80;95708.25;2238343;26;20261;-62
2024/04/16 09:22:40;;;;;;;4.25;1.27;;;;;;;7.70;64.14;95705.66;2238908;26;20246;-62
2024/04/16 09:23:53;;;;;;;7.28;1.00;;;;;;;7.58;63.40;95701.88;2238650;26;20289;-62
2024/04/16 09:25:04;;;;;;;7.05;1.00;;;;;;;7.60;63.49;95708.69;2243523;26;20230;-62
2024/04/16 09:26:13;;;;;;;5.10;1.38;;;;;;;7.66;63.75;95698.00;2240946;26;20210;-62
2024/04/16 09:27:14;;;;;;;4.63;1.15;;;;;;;7.64;64.08;95702.44;2237383;26;20219;-62
2024/04/16 09:28:17;;;;;;;5.70;2.30;;;;;;;7.70;64.76;95698.69;2228781;26;20561;-63
2024/04/16 09:29:26;;;;;;;9.27;1.48;;;;;;;7.54;64.77;95708.97;2228724;26;20712;-63
2024/04/16 09:30:28;;;;;;;5.47;0.95;;;;;;;7.16;65.32;95702.09;2227758;26;20529;-62
2024/04/16 09:31:30;;;;;;;3.55;1.20;;;;;;;6.95;66.31;95724.66;2225270;26;20224;-61
2024/04/16 09:32:31;;;;;;;8.68;1.02;;;;;;;7.02;68.77;95731.25;2235550;26;20289;-61
2024/04/16 09:33:33;;;;;;;5.95;1.10;;;;;;;6.79;69.99;95719.31;2244056;26;20218;-63
2024/04/16 09:34:43;;;;;;;3.70;0.90;;;;;;;6.68;69.15;95724.97;2238908;26;20265;-62
2024/04/16 09:35:45;;;;;;;2.92;0.85;;;;;;;6.69;69.35;95726.66;2243133;26;20257;-61
2024/04/16 09:36:48;;;;;;;3.53;1.10;;;;;;;6.82;69.99;95710.56;2244921;26;20214;-63
2024/04/16 09:37:49;;;;;;;4.13;1.30;;;;;;;6.97;69.95;95709.00;2239798;26;20718;-62
2024/04/16 09:38:51;;;;;;;7.20;1.05;;;;;;;6.83;70.19;95701.84;2239728;26;20260;-63
2024/04/16 09:39:53;;;;;;;5.20;1.10;;;;;;;6.87;70.70;95695.63;2242761;26;20256;-62
2024/04/16 09:40:55;;;;;;;6.20;1.00;;;;;;;6.68;70.33;95705.97;2229351;26;20532;-62
2024/04/16 09:41:58;;;;;;;5.10;0.90;;;;;;;6.42;70.54;95699.34;2227957;26;20305;-63
2024/04/16 09:43:01;;;;;;;6.35;1.02;;;;;;;6.42;71.78;95694.97;2225711;26;20254;-60
2024/04/16 09:44:07;;;;;;;5.57;1.20;;;;;;;6.52;72.72;95713.59;2223949;26;20227;-61
2024/04/16 09:45:08;;;;;;;3.67;0.85;;;;;;;6.48;72.70;95704.25;2226280;26;20219;-62
2024/04/16 09:46:14;;;;;;;10.30;1.35;;;;;;;6.45;73.05;95731.16;2225375;26;20525;-62
2024/04/16 09:47:17;;;;;;;3.83;1.08;;;;;;;6.24;73.16;95704.38;2213838;26;20220;-62
2024/04/16 09:48:20;;;;;;;3.30;0.80;;;;;;;6.09;73.45;95715.41;2215312;26;20223;-62
2024/04/16 09:49:26;;;;;;;4.05;0.65;;;;;;;5.96;73.45;95702.09;2226203;26;20239;-61
2024/04/16 09:50:42;;;;;;;3.17;0.90;;;;;;;6.41;74.25;95708.84;2229672;26;20265;-62
2024/04/16 09:52:01;;;;;;;6.45;1.20;;;;;;;6.63;73.33;95707.94;2228873;26;20261;-62
2024/04/16 09:53:05;;;;;;;3.72;0.82;;;;;;;7.10;73.75;95709.31;2220499;26;20247;-63
2024/04/16 09:54:09;;;;;;;2.30;0.90;;;;;;;7.22;72.32;95707.91;2226827;26;20215;-63
2024/04/16 09:55:12;;;;;;;4.82;1.45;;;;;;;6.96;71.61;95704.75;2225339;26;20658;-62
2024/04/16 09:56:16;;;;;;;4.40;0.80;;;;;;;6.73;70.76;95682.41;2227847;26;20783;-63
2024/04/16 09:57:23;;;;;;;3.08;0.80;;;;;;;6.91;71.16;95699.75;2226127;26;20535;-64
2024/04/16 09:58:26;;;;;;;4.63;0.70;;;;;;;6.69;70.46;95697.25;2225131;26;20263;-65
2024/04/16 09:59:31;;;;;;;1.85;0.80;;;;;;;6.66;70.40;95705.19;2227155;26;20554;-65
2024/04/16 10:00:33;;;;;;;4.25;0.90;;;;;;;6.59;70.95;95714.16;2227184;26;20269;-65
2024/04/16 10:01:40;;;;;;;5.22;0.80;;;;;;;6.53;71.06;95725.66;2227052;26;20316;-65
2024/04/16 10:02:43;;;;;;;6.07;1.02;;;;;;;6.40;70.78;95709.78;2225979;26;21008;-65
2024/04/16 10:03:48;;;;;;;2.67;1.30;;;;;;;6.33;70.87;95735.09;2227052;26;20346;-66
2024/04/16 10:04:50;;;;;;;8.93;1.02;;;;;;;6.29;70.59;95715.41;2227355;26;20227;-65
2024/04/16 10:05:53;;;;;;;5.20;1.13;;;;;;;6.13;71.45;95676.34;2225252;26;20215;-65
2024/04/16 10:06:55;;;;;;;5.15;0.70;;;;;;;6.49;71.81;95726.69;2228153;26;20223;-65
2024/04/16 10:16:20;;;;;;;4.13;0.80;;;;;;;5.98;75.24;95708.03;2268104;25;20568;-63
2024/04/16 10:17:24;;;;;;;1.55;0.60;;;;;;;5.84;75.41;95688.72;2256688;26;20233;-63
2024/04/16 10:18:28;;;;;;;1.92;0.68;;;;;;;5.78;76.07;95707.13;2237370;26;20229;-64
2024/04/16 10:19:30;;;;;;;3.00;0.73;;;;;;;5.86;78.11;95706.81;2239644;26;20695;-63
2024/04/16 10:20:31;;;;;;;1.38;0.60;;;;;;;5.75;77.20;95709.81;2237313;26;20253;-63
2024/04/16 10:21:39;;;;;;;7.63;1.17;;;;;;;5.81;79.59;95698.38;2234145;26;20272;-63
2024/04/16 10:22:41;;;;;;;3.33;1.00;;;;;;;5.77;80.11;95705.44;2234715;26;20253;-63
2024/04/16 10:24:00;;;;;;;1.77;0.75;;;;;;;5.59;78.54;95724.28;2221151;26;20222;-62
2024/04/16 10:25:04;;;;;;;3.35;0.63;;;;;;;5.46;77.93;95717.03;2228424;26;20539;-63
2024/04/16 10:26:06;;;;;;;8.02;1.15;;;;;;;5.51;79.28;95702.16;2233048;26;20223;-63
2024/04/16 10:27:09;;;;;;;3.30;0.90;;;;;;;5.46;79.23;95742.06;2232508;26;20227;-63
2024/04/16 10:28:21;;;;;;;3.58;1.00;;;;;;;5.62;80.58;95700.88;2236400;26;20227;-63
2024/04/16 10:29:25;;;;;;;6.22;1.00;;;;;;;5.75;80.91;95704.63;2235825;26;20302;-63
2024/04/16 10:30:30;;;;;;;2.85;0.93;;;;;;;5.83;80.21;95696.56;2234359;26;20244;-63
2024/04/16 10:31:33;;;;;;;3.65;1.10;;;;;;;5.84;79.88;95693.91;2235481;26;20207;-63
2024/04/16 10:32:42;;;;;;;8.70;0.80;;;;;;;6.33;81.01;95696.22;2235225;26;20389;-64
2024/04/16 10:33:46;;;;;;;3.67;1.02;;;;;;;6.35;79.30;95701.34;2233344;26;20261;-63
2024/04/16 10:34:48;;;;;;;4.75;0.98;;;;;;;6.49;78.38;95695.56;2216921;26;20227;-64
2024/04/16 10:35:49;;;;;;;10.05;1.05;;;;;;;6.63;77.23;95692.38;2220472;26;20657;-63
2024/04/16 10:36:52;;;;;;;1.65;0.60;;;;;;;6.78;76.40;95677.84;2230439;26;20215;-61
2024/04/16 10:37:56;;;;;;;2.75;0.88;;;;;;;6.73;75.07;95682.41;2238559;26;20266;-64
2024/04/16 10:38:58;;;;;;;2.15;0.82;;;;;;;7.13;75.66;95670.22;2234014;26;20258;-66
2024/04/16 10:39:59;;;;;;;4.03;0.88;;;;;;;7.54;74.28;95672.59;2229696;26;20209;-66
2024/04/16 10:41:01;;;;;;;6.85;1.77;;;;;;;7.56;73.31;95675.16;2230674;26;20224;-66
2024/04/16 10:42:03;;;;;;;3.88;1.00;;;;;;;7.47;72.43;95666.88;2229896;26;20262;-66
2024/04/16 10:43:08;;;;;;;5.60;0.90;;;;;;;7.67;72.58;95676.31;2229634;26;20627;-66
2024/04/16 10:44:09;;;;;;;10.93;1.52;;;;;;;7.77;71.79;95662.84;2230792;26;20262;-66
2024/04/16 10:45:11;;;;;;;10.32;1.20;;;;;;;7.98;71.21;95666.16;2238858;26;20215;-65
2024/04/16 10:46:13;;;;;;;5.72;1.10;;;;;;;8.01;71.23;95669.44;2237189;26;20215;-66
2024/04/16 10:47:15;;;;;;;4.75;0.85;;;;;;;7.89;70.40;95664.84;2233045;26;20734;-66
2024/04/16 10:48:18;;;;;;;8.88;1.20;;;;;;;8.00;70.94;95669.53;2229560;26;20600;-66
2024/04/16 10:49:22;;;;;;;2.50;0.80;;;;;;;8.13;70.00;95657.56;2236947;26;20257;-66
2024/04/16 10:50:24;;;;;;;6.18;1.17;;;;;;;8.16;70.12;95661.78;2236732;26;20276;-66
2024/04/16 10:51:29;;;;;;;1.50;0.80;;;;;;;7.93;70.14;95670.75;2233050;26;20217;-65
2024/04/16 10:52:30;;;;;;;2.72;0.88;;;;;;;7.75;70.61;95664.69;2236603;26;20357;-65
2024/04/16 10:53:32;;;;;;;4.10;0.90;;;;;;;7.76;71.08;95679.38;2239845;26;20215;-66
2024/04/16 10:54:34;;;;;;;3.65;0.85;;;;;;;7.50;70.58;95679.72;2219265;26;20340;-65
2024/04/16 10:55:36;;;;;;;2.47;0.90;;;;;;;7.41;71.23;95685.34;2223542;26;20309;-64
2024/04/16 10:56:38;;;;;;;5.72;0.90;;;;;;;7.42;72.26;95694.00;2237743;26;20289;-65
2024/04/16 10:57:44;;;;;;;4.00;0.80;;;;;;;7.56;72.06;95699.34;2236644;26;20298;-66
2024/04/16 10:58:47;;;;;;;5.10;0.88;;;;;;;7.11;71.44;95683.28;2234446;26;20216;-66
2024/04/16 10:59:48;;;;;;;2.38;0.80;;;;;;;7.01;72.86;95688.03;2236009;26;20936;-66
2024/04/16 11:01:06;;;;;;;1.77;0.70;;;;;;;7.05;74.07;95690.47;2229869;26;20311;-66
2024/04/16 11:02:07;;;;;;;2.58;0.70;;;;;;;7.34;73.58;95699.56;2235305;26;20219;-65
2024/04/16 11:03:10;;;;;;;6.32;0.90;;;;;;;7.02;73.44;95704.44;2232536;26;20509;-65
2024/04/16 11:04:18;;;;;;;4.57;0.75;;;;;;;7.25;72.94;95693.03;2232062;26;20219;-65
2024/04/16 11:05:21;;;;;;;1.63;0.60;;;;;;;7.35;72.70;95720.25;2237100;26;20260;-65
2024/04/16 11:06:23;;;;;;;2.85;0.80;;;;;;;7.52;72.59;95713.41;2234261;26;20223;-65
2024/04/16 11:07:24;;;;;;;2.30;0.80;;;;;;;7.35;72.27;95715.06;2219207;26;20246;-65
2024/04/16 11:08:26;;;;;;;1.10;0.50;;;;;;;7.44;72.73;95710.31;2221912;26;20219;-66
2024/04/16 11:09:28;;;;;;;1.52;0.60;;;;;;;7.78;72.47;95693.13;2221421;26;20209;-66
2024/04/16 11:10:29;;;;;;;2.05;0.60;;;;;;;8.04;72.00;95689.25;2219805;26;20263;-66
2024/04/16 11:11:34;;;;;;;4.53;0.90;;;;;;;8.30;71.41;95687.09;2219973;26;20695;-66
2024/04/16 11:12:36;;;;;;;1.85;0.60;;;;;;;8.30;71.55;95693.16;2213830;26;20240;-66
2024/04/16 11:13:38;;;;;;;3.45;0.70;;;;;;;8.47;71.21;95702.72;2217302;26;20700;-66
2024/04/16 11:14:40;;;;;;;2.38;0.77;;;;;;;8.41;69.52;95676.97;2219568;26;20260;-65
2024/04/16 11:15:43;;;;;;;2.22;0.65;;;;;;;8.48;70.18;95683.59;2217542;26;20278;-66
2024/04/16 11:16:44;;;;;;;5.43;1.02;;;;;;;8.21;69.16;95675.38;2220366;26;20715;-66
2024/04/16 11:17:46;;;;;;;1.88;0.80;;;;;;;8.43;68.93;95679.50;2231204;26;20921;-65
2024/04/16 11:18:49;;;;;;;3.63;0.90;;;;;;;8.39;69.16;95685.78;2235241;26;20315;-65
2024/04/16 11:19:52;;;;;;;6.25;1.02;;;;;;;8.53;69.34;95667.72;2236891;26;20217;-66
2024/04/16 11:20:54;;;;;;;11.40;0.93;;;;;;;8.83;68.45;95685.25;2235840;26;20217;-66
2024/04/16 11:21:56;;;;;;;4.57;0.88;;;;;;;8.58;67.86;95673.56;2237494;26;20258;-66
2024/04/16 11:22:59;;;;;;;4.20;0.95;;;;;;;8.78;68.85;95687.28;2223889;26;20310;-66
2024/04/16 11:24:04;;;;;;;5.10;0.90;;;;;;;9.19;68.43;95671.16;2213800;26;20250;-66
2024/04/16 11:25:15;;;;;;;3.50;1.00;;;;;;;9.12;67.61;95681.09;2214127;26;20221;-66
2024/04/16 11:26:17;;;;;;;4.63;0.80;;;;;;;9.06;68.06;95689.22;2216575;26;20215;-66
2024/04/16 11:27:18;;;;;;;5.45;0.98;;;;;;;9.44;67.85;95680.25;2212562;26;20220;-66
2024/04/16 11:28:20;;;;;;;2.45;0.70;;;;;;;9.18;67.97;95684.28;2212892;26;20217;-66
2024/04/16 11:29:22;;;;;;;4.57;0.80;;;;;;;9.41;67.57;95690.84;2210801;26;20316;-66
2024/04/16 11:30:24;;;;;;;3.38;1.10;;;;;;;9.27;67.97;95691.63;2212761;26;20218;-66
2024/04/16 11:31:26;;;;;;;3.58;0.90;;;;;;;9.02;68.10;95694.72;2215784;26;20216;-63
2024/04/16 11:32:31;;;;;;;6.43;1.15;;;;;;;9.22;68.23;95698.81;2216128;26;20257;-64
2024/04/16 11:33:34;;;;;;;4.70;1.00;;;;;;;9.12;67.46;95690.69;2210397;26;20223;-63
2024/04/16 11:34:41;;;;;;;7.00;0.95;;;;;;;9.36;66.95;95696.31;2203280;26;20534;-64
2024/04/16 11:35:42;;;;;;;4.45;1.02;;;;;;;9.41;67.38;95691.69;2202870;26;20363;-63
2024/04/16 11:36:48;;;;;;;2.85;0.68;;;;;;;9.02;67.09;95690.31;2209970;26;20220;-64
2024/04/16 11:37:50;;;;;;;4.20;0.85;;;;;;;8.89;67.60;95691.88;2213088;26;20249;-64
2024/04/16 11:38:52;;;;;;;2.45;0.90;;;;;;;8.75;67.80;95710.88;2211967;26;21000;-63
2024/04/16 11:39:54;;;;;;;4.70;0.80;;;;;;;8.37;68.38;95722.28;2209599;26;20324;-64
2024/04/16 11:40:56;;;;;;;1.55;0.65;;;;;;;7.85;70.77;95690.16;2212513;26;20321;-64
2024/04/16 11:42:07;;;;;;;6.30;1.02;;;;;;;8.00;71.87;95724.13;2198085;26;20550;-64
2024/04/16 11:43:09;;;;;;;4.40;1.00;;;;;;;8.16;73.17;95722.44;2214339;26;20337;-64
2024/04/16 11:44:10;;;;;;;4.00;0.95;;;;;;;8.14;72.67;95710.44;2227876;26;20214;-64
2024/04/16 11:45:12;;;;;;;1.77;0.70;;;;;;;8.15;73.58;95719.91;2226352;26;20254;-64
2024/04/16 11:46:15;;;;;;;2.13;0.93;;;;;;;7.99;74.00;95730.25;2232693;26;20756;-64
2024/04/16 11:47:17;;;;;;;6.32;0.80;;;;;;;8.03;74.34;95717.94;2218747;26;20266;-64
2024/04/16 11:48:19;;;;;;;4.72;1.00;;;;;;;7.99;75.20;95730.25;2223444;26;20225;-64
2024/04/16 11:49:21;;;;;;;7.07;0.80;;;;;;;7.96;76.11;95727.78;2225719;26;20305;-64
2024/04/16 11:50:22;;;;;;;2.80;0.98;;;;;;;7.93;78.00;95736.56;2212378;26;20686;-64
2024/04/16 11:51:24;;;;;;;2.63;0.80;;;;;;;7.42;77.37;95714.78;2214573;26;20231;-64
2024/04/16 11:52:25;;;;;;;2.20;0.80;;;;;;;7.12;77.77;95730.84;2222778;26;20219;-64
2024/04/16 11:53:27;;;;;;;4.05;1.00;;;;;;;6.93;78.06;95716.13;2212016;26;20251;-64
2024/04/16 11:54:32;;;;;;;2.10;0.85;;;;;;;6.95;79.31;95735.03;2214197;26;20270;-63
2024/04/16 11:56:59;;;;;;;1.77;0.70;;;;;;;6.74;80.02;95716.06;2253083;26;20533;-63
2024/04/16 11:58:01;;;;;;;2.05;0.70;;;;;;;6.62;79.64;95714.03;2217146;26;20243;-64
2024/04/16 11:59:02;;;;;;;2.63;0.75;;;;;;;6.68;81.21;95711.16;2215860;26;20256;-63
2024/04/16 12:00:05;;;;;;;3.80;0.90;;;;;;;6.83;82.26;95712.22;2216150;26;20267;-63
2024/04/16 12:01:06;;;;;;;1.70;0.80;;;;;;;6.80;82.55;95704.59;2216019;26;20225;-66
2024/04/16 12:02:08;;;;;;;4.93;0.85;;;;;;;6.89;81.06;95708.53;2215901;26;20258;-67
2024/04/16 12:03:13;;;;;;;5.75;2.65;;;;;;;6.88;81.22;95699.06;2230110;26;20238;-64
2024/04/16 12:04:15;;;;;;;5.72;2.17;;;;;;;6.76;79.57;95698.69;2230035;26;20258;-66
2024/04/16 12:05:18;;;;;;;1.95;0.85;;;;;;;6.65;78.95;95709.56;2229004;26;20528;-65
2024/04/16 12:06:19;;;;;;;2.22;0.93;;;;;;;6.69;78.08;95698.13;2228942;26;20286;-66
2024/04/16 12:07:21;;;;;;;4.50;0.77;;;;;;;6.74;77.99;95692.72;2230018;26;20261;-66
2024/04/16 12:08:23;;;;;;;3.33;0.80;;;;;;;6.82;77.71;95692.41;2230440;26;20425;-65
2024/04/16 12:09:25;;;;;;;3.88;1.17;;;;;;;6.97;77.51;95706.41;2230029;26;20321;-65
2024/04/16 12:10:30;;;;;;;7.10;1.77;;;;;;;6.97;76.96;95706.41;2230568;26;20219;-66
2024/04/16 12:11:32;;;;;;;1.98;0.70;;;;;;;7.09;76.75;95689.44;2229681;26;20685;-65
2024/04/16 12:12:33;;;;;;;8.40;1.10;;;;;;;7.13;75.92;95685.78;2224547;26;20377;-66
2024/04/16 12:13:35;;;;;;;3.85;0.80;;;;;;;7.40;75.73;95682.81;2230300;26;20792;-66
2024/04/16 12:14:36;;;;;;;3.53;1.02;;;;;;;7.70;74.34;95679.69;2229218;26;20228;-66
2024/04/16 12:15:39;;;;;;;5.05;1.38;;;;;;;8.25;73.68;95683.88;2229951;26;20215;-66
2024/04/16 12:16:40;;;;;;;3.30;0.75;;;;;;;8.62;72.09;95669.84;2230295;26;20275;-66
2024/04/16 12:17:42;;;;;;;5.82;1.15;;;;;;;8.70;71.56;95663.38;2229937;26;20250;-64
2024/04/16 12:18:44;;;;;;;2.33;0.70;;;;;;;8.57;71.36;95679.66;2229989;26;20897;-65
2024/04/16 12:19:46;;;;;;;2.95;0.95;;;;;;;8.44;70.68;95670.78;2230489;26;20259;-65
2024/04/16 12:20:48;;;;;;;4.05;0.80;;;;;;;8.50;70.64;95667.88;2230324;26;20265;-64
2024/04/16 12:21:50;;;;;;;3.97;0.80;;;;;;;8.74;68.92;95681.38;2228612;26;20254;-65
2024/04/16 12:22:51;;;;;;;5.03;0.88;;;;;;;8.53;69.63;95672.91;2230013;26;20685;-64
2024/04/16 12:23:53;;;;;;;6.55;1.00;;;;;;;8.45;69.69;95672.47;2230052;26;20584;-64
2024/04/16 12:24:54;;;;;;;4.03;1.00;;;;;;;8.51;69.26;95664.38;2229824;26;20221;-64